Timeline UpdatesTrip UpdatesNews PostsPvt PostsTravel TipsAdmin PostsConv PostsFollowed PostsChat RequestsBlog PostsPNR Posts

Disclaimer
Search
 
 
Thu Apr 17, 2014 09:59:56 ISTHomeTrainsΣChainsAtlasPNRForumGalleryNewsFAQTripsMembersLoginFeedback
No Recent News for this Train
Other Trains in the News **new
Latest...
.
Thu Nov 14, 2013 (06:37PM)
⇐ Return Journey: Train# 19019

19020/Dehradun - Mumbai Bandra Terminus Express

Apr 15 (1:35PM)
Change Departure Station:
Change Arrival Station:
Post a Train Travel TipPost a Train Travel Tip **new
Post a Comment/Question/Picture/VideoPost a Comment/Question/Picture/Video
Pantry/Catering
✕ NO Pantry Car
✓ Catering Avbl
Loco/Rake Reversals
SRE/Saharanpur Junction (6); LRJ/Laksar Junction (4);
RSA - Rake Sharing
Rake/Coach Composition
LOCO-SLR-HCPV-GEN-GEN-AB1-S1-S2-S3-S4-S5-S6-S7-S8-S9-SLR
Loco
GZB WAP-7 NZM-BDTS. ddn to nzm tkd wdp 3a. By Er...
Read more...
Ankit Shotra Bhagat Entry# 595554
News    PNR    Forum    Time-Table    Availability    Fare Chart    Map    Arr/Dep History    Trips    Gallery    ΣChains    X/O    Timeline    
Travel Time: 13h 22m    30 halts    Distance: 615 km    Avg Speed: 46 km/hr
Type: Mail/Express
Zone: WR/Western
Departs @ 14:58 (Avg 8m late)
Platform# ???
SMTWTFS
Raoti/RTI 
Arrives @ 04:20 +1 night (Avg 3m early)
Platform# 1
SMTWTFS
Mumbai Bandra Terminus/BDTS 

30 halts. 108 intermediate Stations between Raoti and Mumbai Bandra Terminus

Show ALL intermediate Stations  Show Old Time-Table

#CodeStation NameX/OArrivesAvgDepartsAvgHaltPFDay#KmSpeedElevZoneAddress
1DDNDehradun (4)  -10:35+021-1066.641648mNRDehradun, Uttarakhand
2DWODoiwala  11:04+411:06+42m--1-1046.839484mNRDehradun, Uttarakhand
3RWLRaiwala Junction (2)X  11:38+211:40+152m21-1026.120361mNRRishikesh, Uttarakhand
4MOTCMotichur (1)X  12:00+712:02+82m11-1019.521312mNRHaridwar, Uttarakhand
5HWHaridwar Junction (9)X  12:15+812:45+1030m31-1015.030294mNRHaridwar, Uttarakhand
6JWPJwalapurX  12:53+1212:55+122m--1-1011.021292mNRHaridwar, Uttarakhand
7LRJLaksar Junction (4)X14:00+314:25+525m--1-988.059238mNRLaksar, Uttarakhand
8RKRoorkee (3)X  14:43+814:45+102m31-970.242264mNRRoorkee - 247667, Uttarakhand
9SRESaharanpur Junction (6)X15:35+416:05+130m31-935.546276mNRSaharanpur, Uttar Pradesh
10DBDDeoband (2)X  16:50+516:52+72m21-901.351258mNRSaharanpur, Uttar Pradesh
11MOZMuzaffarnagar (3)X  17:20+617:22+192m21-877.367247mNRMuzaffarNagar, Uttar Pradesh
12KATKhatauli (2)  17:42+2217:44+242m11-855.173239mNRKhatauli, Uttar Pradesh
13MUTMeerut Cantt. (2)  18:08+3118:10+312m11-826.010230mNRMeerut, Uttar Pradesh
14MTCMeerut City Junction (6)X18:35+1719:20+1045m41-821.783229mNRMeerut, Uttar Pradesh
15MDNRModinagar (2)X  19:34+1819:36+182m21-802.267221mNRGhaziabad, Uttar Pradesh
16MUDMuradnagar (2)  19:45+1919:47+192m21-792.147220mNRGhaziabad, Uttar Pradesh
17GZNNew Ghaziabad (2)X  20:02-20:04-2m21-780.414213mNRGhaziabad, Uttar Pradesh
18GZBGhaziabad Junction (6)X  20:30+920:32+112m41-774.545217mNRGhaziabad, Uttar Pradesh
19SBBSahibabad Junction (5)X  20:41+1620:43+162m--1-767.830209mNRGhaziabad, Uttar Pradesh
20NZMDelhi Hazrat Nizamuddin (7)XO21:15+2021:55+1540m11-751.825209mNRNizamuddin East/Sarai KaleKhan Bus Terminal, Delhi NCT
21TKDTuglakabad (4)XO  22:18+1622:20+172m--1-742.128213mNRNear Tughlakabad Metro Station, Delhi NCT
22FDBFaridabad (4)  22:44+1222:46+132m31-731.040206mNRFaridabad, Haryana
23BVHBallabgarh (5)O  22:58+1223:00+122m--1-722.935203mNRFaridabad, Haryana
24PWLPalwal (8)X  23:36+523:38+72m--1-701.785200mNRPalwal, Haryana
25KSVKosi Kalan (3)XO  00:08+2000:10+212m22-659.229189mNCRKosi Kalan, Uttar Pradesh
26MTJMathura Junction (10)X  01:35+101:45+210m32-617.880179mNCRMathura, Uttar Pradesh
27BTEBharatpur Junction (5)  02:10+702:15+75m--2-584.384174mWCRBharatpur, Rajasthan
28BXNBayana Junction (3)XO  02:45+1002:47+122m--2-542.374198mWCRBayana, Rajasthan
29FSPFateh SinghpuraO  03:03+1403:05+162m--2-522.679223mWCRState Highway 1, Rajasthan
30HANHindaun City (2)  03:15+1803:17+212m--2-509.468230mWCRKarauli, Rajasthan
31SMBJShri Mahabirji (3)O  03:26+2103:28+212m--2-499.249240mWCRKarauli, Rajasthan
32GGCGangapur City (3)  04:10+804:20+1110m--2-465.164270mWCRGangapur, Rajasthan
33NNWNarayanpur Tatwara (2)X  04:36+1304:38+152m--2-448.284256mWCRSawai Madhopur, Rajasthan
34MLZMalarnaX  04:50+1404:52+132m--2-431.465236mWCRSawai Madhopur, Rajasthan
35SWMSawai Madhopur Junction (4)XO  05:20+1105:25+125m--2-401.295266mWCRSawai Madhopur, Rajasthan
36IDGIndargarh Sumerganj Mandi (2)X  05:48+1605:50+182m--2-365.082247mWCRIndargarh, Rajasthan
37LKELakheri (3)  05:58+2006:00+212m--2-354.074228mWCRBundi, Rajasthan
38KPTNKeshorai PatanX  06:38+2406:40+252m--2-306.960243mWCRSH 33, Rajasthan
39GQLGurla  06:48+2706:50+292m--2-298.98251mWCRSH 33, Rajasthan
40KOTAKota Junction (5)X07:30+807:50+1220m22-293.551256mWCRKota, Rajasthan
41DKNTDakaniya Talav (2)  08:01+1708:03+192m22-284.285278mWCRKota, Rajasthan
42DARADaraX  08:30+2108:32+232m--2-246.155354mWCRDara, Rajasthan
43MKXMorak (2)X  08:48+2408:50+242m--2-231.342337mWCRMorak, Rajasthan
44RMARamganj Mandi Junction (3)X  09:03+2109:05+242m--2-222.357358mWCRRamganj Mandi, Rajasthan
45JHWJhalawar Road (3)  09:18+2309:20+232m--2-209.955361mWCRJhalawar City, Rajasthan
46BWMBhawani Mandi (3)X  09:38+1909:40+252m--2-193.476384mWCRBhawani Mandi, Madhya Pradesh
47GOHGaroth (2)  09:58+2510:00+262m12-170.826441mWCRMadhya Pradesh 458880, Madhya Pradesh
48SGZShamgarh (3)X  10:25+1410:30+165m--2-159.967463mWCRMandsaur, Madhya Pradesh
49SVASuwasra (2)  10:42+1810:44+192m--2-146.566450mWCRSuwasra, Madhya Pradesh
50CMUChau Mahla (3)X  10:58+1911:00+202m12-131.135426mWCRJhalawar, Rajasthan
51THURThuriaX  11:24+1111:26+142m--2-117.021430mWCRMDR 45, Madhya Pradesh
52VMAVikramgarh Alot (2)  11:48+511:50+102m12-109.361443mWCRKota Division, Madhya Pradesh
53LNRLuni Richha  12:03+812:05+92m--2-96.028471mWCRAlote, Madhya Pradesh
54MEPMahidpur Road  12:28+012:30+42m--2-85.429493mWCRGogapur, Madhya Pradesh
55NADNagda Junction (4)  13:05+213:15+710m--2-68.475468mWRNagda, Madhya Pradesh
56KUHKhachrod (2)  13:26+913:28+102m--2-54.657497mWRUjjain, Madhya Pradesh
57RNHRunkheraX  13:39+813:41+72m--2-44.163478mWRUjjain, Madhya Pradesh
58BODBangrodX  13:48+813:50+82m--2-36.724484mWRRatlam, Madhya Pradesh
59RTMRatlam Junction (7)X  14:15-114:35+320m42-26.977495mWRRatlam, Madhya Pradesh
60RTI»Raoti (2)»  14:56+914:58+82m--20.071409mWRState Highway 39A, Madhya Pradesh
61BOGBhairongarh (2)  15:08+915:10+82m--211.951374mWRBhairongarh Railway Station, Madhya Pradesh
62BMIBamnia (2)  15:17+1015:19+92m--217.842392mWRBamnia, Madhya Pradesh
63AGRAmargarh (2)  15:25+915:27+82m--222.057410mWRSH 39A, Madhya Pradesh
64PCNPanch Pipila (2)  15:37+915:39+82m--231.584369mWRSH 39A, Madhya Pradesh
65THDRThandla Road (2)  15:49+1015:51+102m--245.460317mWRJhabua, Madhya Pradesh
66MGNMeghnagar (3)  15:59+1116:01+132m--253.473317mWRJhabua, Madhya Pradesh
67ANASAnas (2)  16:13+1616:15+152m--267.979288mWRMadhya Pradesh 389154 ?, Madhya Pradesh
68BIOBordi (2)  16:21+1616:23+152m--275.953289mWRNational Highway 59, Gujarat
69DHDDahod (3)  16:35+1916:40+205m--286.576313mWRDahod, Gujarat
70LMKLimkheda  17:06+2317:08+222m--2119.468205mWRLimkheda, Gujarat
71PPDPiplod Junction  17:15+2317:17+232m--2127.479209mWRPiplod, Gujarat
72SATSant Road (2)X  17:26+2217:28+212m22139.220169mWROrwara, Gujarat
73GDAGodhra Junction (3)X  18:30+018:35+35m102159.665122mWRGodhra, Gujarat
74KRSAKharsaliya (2)  18:45+718:47+62m--2170.585107mWRPanchmahal, Gujarat
75DRLDerolX  18:56+818:58+72m12183.26881mWRKalol, Gujarat
76CPNChampaner Road JunctionX  19:09+619:11+62m--2195.77578mWRPanchmahal, Gujarat
77SMLASamlaya Junction (3)X  19:20+719:22+72m--2206.94867mWRVadodara, Gujarat
78BRCVadodara Junction (7)  19:55+1420:05+1310m32233.58936mWRVadodara, Gujarat
79MYGMiyagam Karjan (2)  20:25+2120:27+202m--2263.37229mWRKarjan, Gujarat
80BHBharuch Junction (5)  21:01+2321:03+232m42304.06219mWRBharuch, Gujarat
81AKVAnkleshwar Junction (4)X  21:12+2521:14+242m22313.37419mWRAnkleshwar, Gujarat
82KSBKosamba Junction (3)X21:29+1721:31+222m--2331.93230mWRKosamba, Gujarat
83STSurat (4)X  22:30+322:38+38m22363.37119mWRSurat 395001, Gujarat
84NVSNavsari (3)  23:03+823:05+92m--2392.97914mWRNavsari, Gujarat
85BIMBilimora Junction (4)X  23:21+1523:23+152m--2414.13611mWRBilimora, Gujarat
86BLValsad (3)  23:53+1123:55+182m32432.03815mWRValsad, Gujarat
87VAPIVapi (3)X  00:36+400:38+82m--3458.25727mWRVapi, Gujarat
88PLGPalghar (3)  02:04+1102:06+132m--3539.73719mWRPalghar, Maharashtra
89VRVirar (8)  02:56+502:58+62m--3570.9486mWRThane, Maharashtra
90BVIMumbai Borivali (8)  03:30+303:32+62m53596.72319mWRMumbai - 400092, Maharashtra
91BDTS•Mumbai Bandra Terminus (5)•  04:20-3-13615.4-4mWRMumbai 400050, Maharashtra
Scroll to Top
Scroll to Bottom